Hlavní strana
METAR-TAF:

METAR-TAF

Letiště :

Zaqatala, Ázerbájdžán

zeměpisná šířka: 41-33-44N, zeměpisná délka: 46-40-02E, výška: 330 m

Aktuální stav počasí

Zpráva byla vytvořena před 1 hodinou a 4 minutami, v 16:00 UTC
Jihovýchodní vítr 6 kt
Teplota 2°C
Vlhkost vzduchu 87%
Tlak 1026 hPa
Viditelnost: 8000 m

METAR: UBBY 181600Z 14006KT 8000 BKN060080 02/M00 Q1026 R33/////// NOSIG RMK MT OP

Čas: 21:04 (17:04 UTC)

Předpověď počasí

Zpráva byla vytvořena před 3 hodinami a 4 minutami, v 14:00 UTC
Předpověď platná od 18 v 15 UTC do 18 v 24 UTC
vítr z různých směrů 4 kt
Viditelnost: 6000 m
Polojasno ve výšce 1200 ft
Oblačno až skoro zataženo ve výšce 5000 ft
Dočasný
od 18 v 18 UTC do 18 v 24 UTC
Viditelnost: 1500 m
Oblačno až skoro zataženo ve výšce 400 ft
kouřmo

TAF: UBBY 181400Z 1815/1824 VRB04KT 6000 SCT012 BKN050 TEMPO 1818/1824 1500 BR BKN004

Stav a předpovědi počasí z více než 4 000 letišť (zprávy METAR a TAF).

Červené a žluté tečky na mapě představují dostupné meteorologické stanice.

Když kurzor umístíte na tečku, zobrazí se název stanice.

Pak kliknutím zobrazíte stav a předpověď počasí.

Chcete-li změnit mapu, kliknutím na zelené tlačítko se znaménkem +mapu přiblížíte, kliknutím na zelené tlačítko se znaménkem – mapu oddálíte a kliknutím na zelené šipky přejdete na sousední mapy.


METAR-TAF: